Portada
METAR-TAF:

METAR-TAF

Aeropuertos :

Aeropuerto Internacional Hato

Curazao, Antillas Neerlandesas

latitud: 12-12N, longitud: 068-58W, altitud: 9 m

Observación

El informe se hizo hace 55 minutos, a las 23:00 UTC
Viento 17 kt del este-sureste
Temperatura 30°C
Humedad 70%
Presión 1011 hPa
Visibilidad 10 km o más
sin nubes por debajo de 1500 m y sin presencia de cumulonimbus.

METAR: TNCC 032300Z 12017KT CAVOK 30/24 Q1011 NOSIG

Hora: 19:55 (23:55 UTC)

Pronóstico

El informe se hizo hace 54 minutos, a las 23:01 UTC
Pronóstico válido del 04 a las 00 UTC al 04 a las 24 UTC
Viento 14 kt del este-sureste
Visibilidad 10 km o más
Escasas nubes a una altura de 1800 ft
Temporalmente
del 04 a las 10 UTC al 04 a las 13 UTC
Cielo nuboso a una altura de 1500 ft

TAF: TNCC 032301Z 0400/0424 12014KT 9999 FEW018 TEMPO 0410/0413 BKN015

Observaciones y pronósticos meteorológicos de más de 4000 aeropuertos (mensajes METAR y TAF).

Los puntos amarillos y rojos representan las estaciones disponibles.

Ponga el ratón en el punto deseado para ver el nombre de la estación.

Haga clic para ver las observaciones y los pronósticos meteorológicos.

Para cambiar el mapa : haga clic en los botones verdes con una cruz de color negro para hacer un zoom, en el botón verde con un guión para alejar o en las flechas verdes para mapas adyacentes.


METAR-TAF: